sensor_id;sensor_type;location;lat;lon;timestamp;temperature;humidity
62573;DHT22;48626;51.678;5.806;2023-04-16T00:02:01;10.10;99.90
62573;DHT22;48626;51.678;5.806;2023-04-16T00:04:27;10.10;99.90
62573;DHT22;48626;51.678;5.806;2023-04-16T00:06:53;10.00;99.90
62573;DHT22;48626;51.678;5.806;2023-04-16T00:09:19;10.00;99.90
62573;DHT22;48626;51.678;5.806;2023-04-16T00:11:45;10.10;99.90
62573;DHT22;48626;51.678;5.806;2023-04-16T00:14:11;10.10;99.90
62573;DHT22;48626;51.678;5.806;2023-04-16T00:16:36;10.10;99.90
62573;DHT22;48626;51.678;5.806;2023-04-16T00:19:02;10.00;99.90
62573;DHT22;48626;51.678;5.806;2023-04-16T00:21:28;10.10;99.90
62573;DHT22;48626;51.678;5.806;2023-04-16T00:23:54;10.10;99.90
62573;DHT22;48626;51.678;5.806;2023-04-16T00:26:20;10.10;99.90
62573;DHT22;48626;51.678;5.806;2023-04-16T00:28:45;10.10;99.90
62573;DHT22;48626;51.678;5.806;2023-04-16T00:31:11;10.00;99.90
62573;DHT22;48626;51.678;5.806;2023-04-16T00:33:36;10.00;99.90
62573;DHT22;48626;51.678;5.806;2023-04-16T00:36:02;10.00;99.90
62573;DHT22;48626;51.678;5.806;2023-04-16T00:38:28;10.00;99.90
62573;DHT22;48626;51.678;5.806;2023-04-16T00:40:55;10.10;99.90
62573;DHT22;48626;51.678;5.806;2023-04-16T00:43:24;10.10;99.90
62573;DHT22;48626;51.678;5.806;2023-04-16T00:45:51;10.10;99.90
62573;DHT22;48626;51.678;5.806;2023-04-16T00:48:19;10.10;99.90
62573;DHT22;48626;51.678;5.806;2023-04-16T00:50:44;10.10;99.90
62573;DHT22;48626;51.678;5.806;2023-04-16T00:53:10;10.10;99.90
62573;DHT22;48626;51.678;5.806;2023-04-16T00:55:36;10.10;99.90
62573;DHT22;48626;51.678;5.806;2023-04-16T00:58:02;10.10;99.90
62573;DHT22;48626;51.678;5.806;2023-04-16T01:00:28;10.10;99.90
62573;DHT22;48626;51.678;5.806;2023-04-16T01:02:54;10.10;99.90
62573;DHT22;48626;51.678;5.806;2023-04-16T01:05:20;10.00;99.90
62573;DHT22;48626;51.678;5.806;2023-04-16T01:07:45;10.00;99.90
62573;DHT22;48626;51.678;5.806;2023-04-16T01:10:11;10.10;99.90
62573;DHT22;48626;51.678;5.806;2023-04-16T01:12:37;10.10;99.90
62573;DHT22;48626;51.678;5.806;2023-04-16T01:15:03;10.10;99.90
62573;DHT22;48626;51.678;5.806;2023-04-16T01:17:28;10.10;99.90
62573;DHT22;48626;51.678;5.806;2023-04-16T01:19:58;10.10;99.90
62573;DHT22;48626;51.678;5.806;2023-04-16T01:22:25;10.10;99.90
62573;DHT22;48626;51.678;5.806;2023-04-16T01:24:50;10.10;99.90
62573;DHT22;48626;51.678;5.806;2023-04-16T01:27:16;10.10;99.90
62573;DHT22;48626;51.678;5.806;2023-04-16T01:29:42;10.00;99.90
62573;DHT22;48626;51.678;5.806;2023-04-16T01:32:07;10.10;99.90
62573;DHT22;48626;51.678;5.806;2023-04-16T01:34:33;10.00;99.90
62573;DHT22;48626;51.678;5.806;2023-04-16T01:36:58;10.10;99.90
62573;DHT22;48626;51.678;5.806;2023-04-16T01:39:24;10.10;99.90
62573;DHT22;48626;51.678;5.806;2023-04-16T01:41:50;10.10;99.90
62573;DHT22;48626;51.678;5.806;2023-04-16T01:44:16;10.10;99.90
62573;DHT22;48626;51.678;5.806;2023-04-16T01:46:42;10.10;99.90
62573;DHT22;48626;51.678;5.806;2023-04-16T01:49:08;10.10;99.90
62573;DHT22;48626;51.678;5.806;2023-04-16T01:51:33;10.10;99.90
62573;DHT22;48626;51.678;5.806;2023-04-16T01:54:00;10.10;99.90
62573;DHT22;48626;51.678;5.806;2023-04-16T01:56:25;10.10;99.90
62573;DHT22;48626;51.678;5.806;2023-04-16T01:58:51;10.10;99.90
62573;DHT22;48626;51.678;5.806;2023-04-16T02:01:17;10.10;99.90
62573;DHT22;48626;51.678;5.806;2023-04-16T02:03:43;10.10;99.90
62573;DHT22;48626;51.678;5.806;2023-04-16T02:06:09;10.10;99.90
62573;DHT22;48626;51.678;5.806;2023-04-16T02:08:35;10.10;99.90
62573;DHT22;48626;51.678;5.806;2023-04-16T02:11:00;10.10;99.90
62573;DHT22;48626;51.678;5.806;2023-04-16T02:13:26;10.20;99.90
62573;DHT22;48626;51.678;5.806;2023-04-16T02:15:52;10.10;99.90
62573;DHT22;48626;51.678;5.806;2023-04-16T02:18:18;10.10;99.90
62573;DHT22;48626;51.678;5.806;2023-04-16T02:20:45;10.10;99.90
62573;DHT22;48626;51.678;5.806;2023-04-16T02:23:11;10.10;99.90
62573;DHT22;48626;51.678;5.806;2023-04-16T02:25:46;10.10;99.90
62573;DHT22;48626;51.678;5.806;2023-04-16T02:28:14;10.10;99.90
62573;DHT22;48626;51.678;5.806;2023-04-16T02:30:40;10.10;99.90
62573;DHT22;48626;51.678;5.806;2023-04-16T02:33:08;10.10;99.90
62573;DHT22;48626;51.678;5.806;2023-04-16T02:35:35;10.10;99.90
62573;DHT22;48626;51.678;5.806;2023-04-16T02:38:02;10.10;99.90
62573;DHT22;48626;51.678;5.806;2023-04-16T02:40:28;10.10;99.90
62573;DHT22;48626;51.678;5.806;2023-04-16T02:42:54;10.10;99.90
62573;DHT22;48626;51.678;5.806;2023-04-16T02:45:20;10.10;99.90
62573;DHT22;48626;51.678;5.806;2023-04-16T02:47:47;10.10;99.90
62573;DHT22;48626;51.678;5.806;2023-04-16T02:50:13;10.10;99.90
62573;DHT22;48626;51.678;5.806;2023-04-16T02:52:39;10.10;99.90
62573;DHT22;48626;51.678;5.806;2023-04-16T02:55:05;10.10;99.90
62573;DHT22;48626;51.678;5.806;2023-04-16T02:57:31;10.10;99.90
62573;DHT22;48626;51.678;5.806;2023-04-16T02:59:57;10.10;99.90
62573;DHT22;48626;51.678;5.806;2023-04-16T03:02:22;10.10;99.90
62573;DHT22;48626;51.678;5.806;2023-04-16T03:04:48;10.10;99.90
62573;DHT22;48626;51.678;5.806;2023-04-16T03:07:14;10.10;99.90
62573;DHT22;48626;51.678;5.806;2023-04-16T03:09:39;10.20;99.90
62573;DHT22;48626;51.678;5.806;2023-04-16T03:12:05;10.20;99.90
62573;DHT22;48626;51.678;5.806;2023-04-16T03:14:31;10.20;99.90
62573;DHT22;48626;51.678;5.806;2023-04-16T03:16:57;10.20;99.90
62573;DHT22;48626;51.678;5.806;2023-04-16T03:19:23;10.20;99.90
62573;DHT22;48626;51.678;5.806;2023-04-16T03:21:48;10.20;99.90
62573;DHT22;48626;51.678;5.806;2023-04-16T03:24:14;10.20;99.90
62573;DHT22;48626;51.678;5.806;2023-04-16T03:26:40;10.20;99.90
62573;DHT22;48626;51.678;5.806;2023-04-16T03:29:06;10.20;99.90
62573;DHT22;48626;51.678;5.806;2023-04-16T03:31:31;10.20;99.90
62573;DHT22;48626;51.678;5.806;2023-04-16T03:33:57;10.20;99.90
62573;DHT22;48626;51.678;5.806;2023-04-16T03:36:23;10.20;99.90
62573;DHT22;48626;51.678;5.806;2023-04-16T03:38:48;10.20;99.90
62573;DHT22;48626;51.678;5.806;2023-04-16T03:41:14;10.20;99.90
62573;DHT22;48626;51.678;5.806;2023-04-16T03:43:40;10.20;99.90
62573;DHT22;48626;51.678;5.806;2023-04-16T03:46:05;10.10;99.90
62573;DHT22;48626;51.678;5.806;2023-04-16T03:48:31;10.10;99.90
62573;DHT22;48626;51.678;5.806;2023-04-16T03:50:57;10.10;99.90
62573;DHT22;48626;51.678;5.806;2023-04-16T03:53:23;10.10;99.90
62573;DHT22;48626;51.678;5.806;2023-04-16T03:55:49;10.10;99.90
62573;DHT22;48626;51.678;5.806;2023-04-16T03:58:18;10.10;99.90
62573;DHT22;48626;51.678;5.806;2023-04-16T04:00:44;10.10;99.90
62573;DHT22;48626;51.678;5.806;2023-04-16T04:03:10;10.10;99.90
62573;DHT22;48626;51.678;5.806;2023-04-16T04:05:39;10.10;99.90
62573;DHT22;48626;51.678;5.806;2023-04-16T04:08:06;10.10;99.90
62573;DHT22;48626;51.678;5.806;2023-04-16T04:10:33;10.20;99.90
62573;DHT22;48626;51.678;5.806;2023-04-16T04:12:59;10.10;99.90
62573;DHT22;48626;51.678;5.806;2023-04-16T04:15:25;10.10;99.90
62573;DHT22;48626;51.678;5.806;2023-04-16T04:17:51;10.10;99.90
62573;DHT22;48626;51.678;5.806;2023-04-16T04:20:17;10.10;99.90
62573;DHT22;48626;51.678;5.806;2023-04-16T04:22:42;10.10;99.90
62573;DHT22;48626;51.678;5.806;2023-04-16T04:25:09;10.10;99.90
62573;DHT22;48626;51.678;5.806;2023-04-16T04:27:35;10.10;99.90
62573;DHT22;48626;51.678;5.806;2023-04-16T04:30:01;10.20;99.90
62573;DHT22;48626;51.678;5.806;2023-04-16T04:32:28;10.10;99.90
62573;DHT22;48626;51.678;5.806;2023-04-16T04:34:54;10.10;99.90
62573;DHT22;48626;51.678;5.806;2023-04-16T04:37:19;10.10;99.90
62573;DHT22;48626;51.678;5.806;2023-04-16T04:39:45;10.10;99.90
62573;DHT22;48626;51.678;5.806;2023-04-16T04:42:11;10.10;99.90
62573;DHT22;48626;51.678;5.806;2023-04-16T04:44:36;10.10;99.90
62573;DHT22;48626;51.678;5.806;2023-04-16T04:47:02;10.00;99.90
62573;DHT22;48626;51.678;5.806;2023-04-16T04:49:28;10.00;99.90
62573;DHT22;48626;51.678;5.806;2023-04-16T04:51:54;10.10;99.90
62573;DHT22;48626;51.678;5.806;2023-04-16T04:54:20;10.10;99.90
62573;DHT22;48626;51.678;5.806;2023-04-16T04:56:46;10.10;99.90
62573;DHT22;48626;51.678;5.806;2023-04-16T04:59:12;10.10;99.90
62573;DHT22;48626;51.678;5.806;2023-04-16T05:01:38;10.10;99.90
62573;DHT22;48626;51.678;5.806;2023-04-16T05:04:03;10.00;99.90
62573;DHT22;48626;51.678;5.806;2023-04-16T05:06:29;10.10;99.90
62573;DHT22;48626;51.678;5.806;2023-04-16T05:08:56;10.10;99.90
62573;DHT22;48626;51.678;5.806;2023-04-16T05:11:21;10.10;99.90
62573;DHT22;48626;51.678;5.806;2023-04-16T05:13:47;10.10;99.90
62573;DHT22;48626;51.678;5.806;2023-04-16T05:16:13;10.10;99.90
62573;DHT22;48626;51.678;5.806;2023-04-16T05:18:38;10.10;99.90
62573;DHT22;48626;51.678;5.806;2023-04-16T05:21:04;10.10;99.90
62573;DHT22;48626;51.678;5.806;2023-04-16T05:23:30;10.10;99.90
62573;DHT22;48626;51.678;5.806;2023-04-16T05:25:55;10.10;99.90
62573;DHT22;48626;51.678;5.806;2023-04-16T05:28:21;10.10;99.90
62573;DHT22;48626;51.678;5.806;2023-04-16T05:30:47;10.10;99.90
62573;DHT22;48626;51.678;5.806;2023-04-16T05:33:12;10.10;99.90
62573;DHT22;48626;51.678;5.806;2023-04-16T05:35:38;10.10;99.90
62573;DHT22;48626;51.678;5.806;2023-04-16T05:38:04;10.00;99.90
62573;DHT22;48626;51.678;5.806;2023-04-16T05:40:30;10.10;99.90
62573;DHT22;48626;51.678;5.806;2023-04-16T05:42:56;10.10;99.90
62573;DHT22;48626;51.678;5.806;2023-04-16T05:45:22;10.10;99.90
62573;DHT22;48626;51.678;5.806;2023-04-16T05:47:47;10.00;99.90
62573;DHT22;48626;51.678;5.806;2023-04-16T05:50:13;10.00;99.90
62573;DHT22;48626;51.678;5.806;2023-04-16T05:52:39;10.10;99.90
62573;DHT22;48626;51.678;5.806;2023-04-16T05:55:05;10.10;99.90
62573;DHT22;48626;51.678;5.806;2023-04-16T05:57:32;10.10;99.90
62573;DHT22;48626;51.678;5.806;2023-04-16T05:59:57;10.10;99.90
62573;DHT22;48626;51.678;5.806;2023-04-16T06:02:23;10.20;99.90
62573;DHT22;48626;51.678;5.806;2023-04-16T06:04:49;10.20;99.90
62573;DHT22;48626;51.678;5.806;2023-04-16T06:07:14;10.20;99.90
62573;DHT22;48626;51.678;5.806;2023-04-16T06:09:40;10.20;99.90
62573;DHT22;48626;51.678;5.806;2023-04-16T06:12:06;10.20;99.90
62573;DHT22;48626;51.678;5.806;2023-04-16T06:14:32;10.30;99.90
62573;DHT22;48626;51.678;5.806;2023-04-16T06:16:57;10.30;99.90
62573;DHT22;48626;51.678;5.806;2023-04-16T06:19:23;10.30;99.90
62573;DHT22;48626;51.678;5.806;2023-04-16T06:21:49;10.40;99.90
62573;DHT22;48626;51.678;5.806;2023-04-16T06:24:15;10.30;99.90
62573;DHT22;48626;51.678;5.806;2023-04-16T06:26:43;10.30;99.90
62573;DHT22;48626;51.678;5.806;2023-04-16T06:29:09;10.40;99.90
62573;DHT22;48626;51.678;5.806;2023-04-16T06:31:36;10.40;99.90
62573;DHT22;48626;51.678;5.806;2023-04-16T06:34:01;10.40;99.90
62573;DHT22;48626;51.678;5.806;2023-04-16T06:36:27;10.40;99.90
62573;DHT22;48626;51.678;5.806;2023-04-16T06:38:53;10.40;99.90
62573;DHT22;48626;51.678;5.806;2023-04-16T06:41:19;10.50;99.90
62573;DHT22;48626;51.678;5.806;2023-04-16T06:43:47;10.50;99.90
62573;DHT22;48626;51.678;5.806;2023-04-16T06:46:12;10.50;99.90
62573;DHT22;48626;51.678;5.806;2023-04-16T06:48:38;10.50;99.90
62573;DHT22;48626;51.678;5.806;2023-04-16T06:51:03;10.50;99.90
62573;DHT22;48626;51.678;5.806;2023-04-16T06:53:29;10.50;99.90
62573;DHT22;48626;51.678;5.806;2023-04-16T06:55:55;10.50;99.90
62573;DHT22;48626;51.678;5.806;2023-04-16T06:58:21;10.60;99.90
62573;DHT22;48626;51.678;5.806;2023-04-16T07:00:46;10.60;99.90
62573;DHT22;48626;51.678;5.806;2023-04-16T07:03:12;10.70;99.90
62573;DHT22;48626;51.678;5.806;2023-04-16T07:05:38;10.70;99.90
62573;DHT22;48626;51.678;5.806;2023-04-16T07:08:04;10.70;99.90
62573;DHT22;48626;51.678;5.806;2023-04-16T07:10:30;10.70;99.90
62573;DHT22;48626;51.678;5.806;2023-04-16T07:12:55;10.80;99.90
62573;DHT22;48626;51.678;5.806;2023-04-16T07:15:21;10.80;99.90
62573;DHT22;48626;51.678;5.806;2023-04-16T07:17:47;10.90;99.90
62573;DHT22;48626;51.678;5.806;2023-04-16T07:20:12;10.90;99.90
62573;DHT22;48626;51.678;5.806;2023-04-16T07:22:38;10.80;99.90
62573;DHT22;48626;51.678;5.806;2023-04-16T07:25:04;10.90;99.90
62573;DHT22;48626;51.678;5.806;2023-04-16T07:27:30;10.90;99.90
62573;DHT22;48626;51.678;5.806;2023-04-16T07:29:55;11.00;99.90
62573;DHT22;48626;51.678;5.806;2023-04-16T07:32:21;11.00;99.90
62573;DHT22;48626;51.678;5.806;2023-04-16T07:34:47;11.10;99.90
62573;DHT22;48626;51.678;5.806;2023-04-16T07:37:12;11.10;99.90
62573;DHT22;48626;51.678;5.806;2023-04-16T07:39:38;11.20;99.90
62573;DHT22;48626;51.678;5.806;2023-04-16T07:42:04;11.20;99.90
62573;DHT22;48626;51.678;5.806;2023-04-16T07:44:30;11.20;99.90
62573;DHT22;48626;51.678;5.806;2023-04-16T07:46:56;11.20;99.90
62573;DHT22;48626;51.678;5.806;2023-04-16T07:49:22;11.20;99.90
62573;DHT22;48626;51.678;5.806;2023-04-16T07:51:47;11.20;99.90
62573;DHT22;48626;51.678;5.806;2023-04-16T07:54:13;11.20;99.90
62573;DHT22;48626;51.678;5.806;2023-04-16T07:56:39;11.30;99.90
62573;DHT22;48626;51.678;5.806;2023-04-16T07:59:04;11.30;99.90
62573;DHT22;48626;51.678;5.806;2023-04-16T08:01:30;11.30;99.90
62573;DHT22;48626;51.678;5.806;2023-04-16T08:03:56;11.40;99.90
62573;DHT22;48626;51.678;5.806;2023-04-16T08:06:22;11.40;99.90
62573;DHT22;48626;51.678;5.806;2023-04-16T08:08:48;11.40;99.90
62573;DHT22;48626;51.678;5.806;2023-04-16T08:11:13;11.40;99.90
62573;DHT22;48626;51.678;5.806;2023-04-16T08:13:39;11.40;99.90
62573;DHT22;48626;51.678;5.806;2023-04-16T08:16:05;11.50;99.90
62573;DHT22;48626;51.678;5.806;2023-04-16T08:18:31;11.50;99.90
62573;DHT22;48626;51.678;5.806;2023-04-16T08:20:57;11.60;99.90
62573;DHT22;48626;51.678;5.806;2023-04-16T08:23:23;11.60;99.90
62573;DHT22;48626;51.678;5.806;2023-04-16T08:25:48;11.70;99.90
62573;DHT22;48626;51.678;5.806;2023-04-16T08:28:14;11.80;99.90
62573;DHT22;48626;51.678;5.806;2023-04-16T08:30:40;12.00;99.90
62573;DHT22;48626;51.678;5.806;2023-04-16T08:33:05;12.10;99.90
62573;DHT22;48626;51.678;5.806;2023-04-16T08:35:31;12.10;99.90
62573;DHT22;48626;51.678;5.806;2023-04-16T08:37:57;12.10;99.90
62573;DHT22;48626;51.678;5.806;2023-04-16T08:40:25;12.10;99.90
62573;DHT22;48626;51.678;5.806;2023-04-16T08:42:54;12.10;99.90
62573;DHT22;48626;51.678;5.806;2023-04-16T08:45:25;12.10;99.90
62573;DHT22;48626;51.678;5.806;2023-04-16T08:47:51;12.10;99.90
62573;DHT22;48626;51.678;5.806;2023-04-16T08:50:22;12.10;99.90
62573;DHT22;48626;51.678;5.806;2023-04-16T08:53:09;12.10;99.90
62573;DHT22;48626;51.678;5.806;2023-04-16T08:55:38;12.10;99.90
62573;DHT22;48626;51.678;5.806;2023-04-16T08:58:14;12.20;99.90
62573;DHT22;48626;51.678;5.806;2023-04-16T09:00:41;12.30;99.90
62573;DHT22;48626;51.678;5.806;2023-04-16T09:03:08;12.30;99.90
62573;DHT22;48626;51.678;5.806;2023-04-16T09:05:37;12.30;99.90
62573;DHT22;48626;51.678;5.806;2023-04-16T09:08:06;12.40;99.90
62573;DHT22;48626;51.678;5.806;2023-04-16T09:10:33;12.60;99.90
62573;DHT22;48626;51.678;5.806;2023-04-16T09:12:59;12.80;99.90
62573;DHT22;48626;51.678;5.806;2023-04-16T09:15:25;12.80;99.90
62573;DHT22;48626;51.678;5.806;2023-04-16T09:17:52;13.00;99.90
62573;DHT22;48626;51.678;5.806;2023-04-16T09:20:18;13.00;99.90
62573;DHT22;48626;51.678;5.806;2023-04-16T09:22:43;13.20;99.90
62573;DHT22;48626;51.678;5.806;2023-04-16T09:25:10;13.40;99.90
62573;DHT22;48626;51.678;5.806;2023-04-16T09:27:36;13.50;99.90
62573;DHT22;48626;51.678;5.806;2023-04-16T09:30:23;13.70;99.90
62573;DHT22;48626;51.678;5.806;2023-04-16T09:32:50;13.80;99.90
62573;DHT22;48626;51.678;5.806;2023-04-16T09:35:17;13.90;99.90
62573;DHT22;48626;51.678;5.806;2023-04-16T09:37:46;14.00;99.90
62573;DHT22;48626;51.678;5.806;2023-04-16T09:40:23;14.10;99.90
62573;DHT22;48626;51.678;5.806;2023-04-16T09:42:49;14.20;99.90
62573;DHT22;48626;51.678;5.806;2023-04-16T09:45:15;14.20;99.90
62573;DHT22;48626;51.678;5.806;2023-04-16T09:47:42;14.10;99.90
62573;DHT22;48626;51.678;5.806;2023-04-16T09:50:09;14.10;99.90
62573;DHT22;48626;51.678;5.806;2023-04-16T09:52:38;14.00;99.90
62573;DHT22;48626;51.678;5.806;2023-04-16T09:55:04;14.00;99.90
62573;DHT22;48626;51.678;5.806;2023-04-16T09:57:29;14.10;99.90
62573;DHT22;48626;51.678;5.806;2023-04-16T10:00:04;14.20;99.90
62573;DHT22;48626;51.678;5.806;2023-04-16T10:02:30;14.30;99.90
62573;DHT22;48626;51.678;5.806;2023-04-16T10:05:00;14.50;99.90
62573;DHT22;48626;51.678;5.806;2023-04-16T10:07:33;14.60;99.90
62573;DHT22;48626;51.678;5.806;2023-04-16T10:09:59;14.80;99.90
62573;DHT22;48626;51.678;5.806;2023-04-16T10:12:24;14.80;99.90
62573;DHT22;48626;51.678;5.806;2023-04-16T10:14:51;14.90;99.90
62573;DHT22;48626;51.678;5.806;2023-04-16T10:17:17;15.00;99.90
62573;DHT22;48626;51.678;5.806;2023-04-16T10:19:44;15.10;99.90
62573;DHT22;48626;51.678;5.806;2023-04-16T10:22:10;15.10;99.90
62573;DHT22;48626;51.678;5.806;2023-04-16T10:24:36;15.10;99.90
62573;DHT22;48626;51.678;5.806;2023-04-16T10:27:02;15.20;99.90
62573;DHT22;48626;51.678;5.806;2023-04-16T10:29:29;15.30;99.90
62573;DHT22;48626;51.678;5.806;2023-04-16T10:31:55;15.60;99.90
62573;DHT22;48626;51.678;5.806;2023-04-16T10:34:23;15.90;99.90
62573;DHT22;48626;51.678;5.806;2023-04-16T10:36:51;16.20;99.90
62573;DHT22;48626;51.678;5.806;2023-04-16T10:39:24;16.20;99.90
62573;DHT22;48626;51.678;5.806;2023-04-16T10:42:10;16.50;99.90
62573;DHT22;48626;51.678;5.806;2023-04-16T10:44:36;17.00;99.90
62573;DHT22;48626;51.678;5.806;2023-04-16T10:47:09;17.10;99.90
62573;DHT22;48626;51.678;5.806;2023-04-16T10:49:36;17.10;99.90
62573;DHT22;48626;51.678;5.806;2023-04-16T10:54:35;16.90;99.90
62573;DHT22;48626;51.678;5.806;2023-04-16T10:57:06;16.80;99.90
62573;DHT22;48626;51.678;5.806;2023-04-16T10:59:36;16.90;99.90
62573;DHT22;48626;51.678;5.806;2023-04-16T11:02:14;17.00;99.90
62573;DHT22;48626;51.678;5.806;2023-04-16T11:04:42;16.90;99.90
62573;DHT22;48626;51.678;5.806;2023-04-16T11:09:56;17.20;99.90
62573;DHT22;48626;51.678;5.806;2023-04-16T11:15:13;17.10;99.90
62573;DHT22;48626;51.678;5.806;2023-04-16T11:17:45;17.20;99.90
62573;DHT22;48626;51.678;5.806;2023-04-16T11:20:20;17.20;99.90
62573;DHT22;48626;51.678;5.806;2023-04-16T11:22:49;17.20;99.90
62573;DHT22;48626;51.678;5.806;2023-04-16T11:25:23;17.10;99.90
62573;DHT22;48626;51.678;5.806;2023-04-16T11:27:49;17.00;99.90
62573;DHT22;48626;51.678;5.806;2023-04-16T11:30:15;16.90;99.90
62573;DHT22;48626;51.678;5.806;2023-04-16T11:32:43;16.80;99.90
62573;DHT22;48626;51.678;5.806;2023-04-16T11:35:14;16.70;99.90
62573;DHT22;48626;51.678;5.806;2023-04-16T11:37:40;16.60;99.90
62573;DHT22;48626;51.678;5.806;2023-04-16T11:40:07;16.50;99.90
62573;DHT22;48626;51.678;5.806;2023-04-16T11:42:38;16.40;99.90
62573;DHT22;48626;51.678;5.806;2023-04-16T11:45:10;16.20;99.90
62573;DHT22;48626;51.678;5.806;2023-04-16T11:47:47;16.20;99.90
62573;DHT22;48626;51.678;5.806;2023-04-16T11:52:49;16.90;99.90
62573;DHT22;48626;51.678;5.806;2023-04-16T11:55:16;17.30;99.90
62573;DHT22;48626;51.678;5.806;2023-04-16T11:57:42;17.60;99.90
62573;DHT22;48626;51.678;5.806;2023-04-16T12:00:08;18.10;99.90
62573;DHT22;48626;51.678;5.806;2023-04-16T12:02:38;18.10;99.90
62573;DHT22;48626;51.678;5.806;2023-04-16T12:05:07;18.10;99.90
62573;DHT22;48626;51.678;5.806;2023-04-16T12:07:49;18.10;99.90
62573;DHT22;48626;51.678;5.806;2023-04-16T12:10:15;17.90;99.90
62573;DHT22;48626;51.678;5.806;2023-04-16T12:12:41;17.70;99.90
62573;DHT22;48626;51.678;5.806;2023-04-16T12:15:07;17.50;99.90
62573;DHT22;48626;51.678;5.806;2023-04-16T12:17:34;17.50;99.90
62573;DHT22;48626;51.678;5.806;2023-04-16T12:20:02;17.50;99.90
62573;DHT22;48626;51.678;5.806;2023-04-16T12:22:34;17.40;99.90
62573;DHT22;48626;51.678;5.806;2023-04-16T12:25:01;17.30;99.90
62573;DHT22;48626;51.678;5.806;2023-04-16T12:30:17;17.60;99.90
62573;DHT22;48626;51.678;5.806;2023-04-16T12:32:46;17.60;99.90
62573;DHT22;48626;51.678;5.806;2023-04-16T12:35:12;17.60;99.90
62573;DHT22;48626;51.678;5.806;2023-04-16T12:37:38;17.60;99.90
62573;DHT22;48626;51.678;5.806;2023-04-16T12:40:06;17.50;99.90
62573;DHT22;48626;51.678;5.806;2023-04-16T12:42:33;17.50;99.90
62573;DHT22;48626;51.678;5.806;2023-04-16T12:45:02;17.50;99.90
62573;DHT22;48626;51.678;5.806;2023-04-16T12:47:29;17.80;99.90
62573;DHT22;48626;51.678;5.806;2023-04-16T12:49:55;17.90;99.90
62573;DHT22;48626;51.678;5.806;2023-04-16T12:52:22;18.10;99.90
62573;DHT22;48626;51.678;5.806;2023-04-16T12:54:48;18.20;99.90
62573;DHT22;48626;51.678;5.806;2023-04-16T12:57:14;18.30;99.90
62573;DHT22;48626;51.678;5.806;2023-04-16T12:59:40;18.10;99.90
62573;DHT22;48626;51.678;5.806;2023-04-16T13:02:06;18.00;99.90
62573;DHT22;48626;51.678;5.806;2023-04-16T13:04:31;18.00;99.90
62573;DHT22;48626;51.678;5.806;2023-04-16T13:06:57;18.00;99.90
62573;DHT22;48626;51.678;5.806;2023-04-16T13:09:23;18.10;99.90
62573;DHT22;48626;51.678;5.806;2023-04-16T13:11:49;18.00;99.90
62573;DHT22;48626;51.678;5.806;2023-04-16T13:14:15;17.80;99.90
62573;DHT22;48626;51.678;5.806;2023-04-16T13:16:40;17.90;99.90
62573;DHT22;48626;51.678;5.806;2023-04-16T13:19:06;18.00;99.90
62573;DHT22;48626;51.678;5.806;2023-04-16T13:21:32;18.10;99.90
62573;DHT22;48626;51.678;5.806;2023-04-16T13:23:58;17.90;99.90
62573;DHT22;48626;51.678;5.806;2023-04-16T13:26:24;17.80;99.90
62573;DHT22;48626;51.678;5.806;2023-04-16T13:28:50;17.70;99.90
62573;DHT22;48626;51.678;5.806;2023-04-16T13:31:16;17.50;99.90
62573;DHT22;48626;51.678;5.806;2023-04-16T13:33:45;17.40;99.90
62573;DHT22;48626;51.678;5.806;2023-04-16T13:36:11;17.30;99.90
62573;DHT22;48626;51.678;5.806;2023-04-16T13:38:36;17.30;99.90
62573;DHT22;48626;51.678;5.806;2023-04-16T13:41:04;17.30;99.90
62573;DHT22;48626;51.678;5.806;2023-04-16T13:43:30;17.30;99.90
62573;DHT22;48626;51.678;5.806;2023-04-16T13:45:56;17.10;99.90
62573;DHT22;48626;51.678;5.806;2023-04-16T13:48:22;17.10;99.90
62573;DHT22;48626;51.678;5.806;2023-04-16T13:50:47;17.30;99.90
62573;DHT22;48626;51.678;5.806;2023-04-16T13:53:13;17.50;99.90
62573;DHT22;48626;51.678;5.806;2023-04-16T13:55:39;17.40;99.90
62573;DHT22;48626;51.678;5.806;2023-04-16T13:58:04;17.40;99.90
62573;DHT22;48626;51.678;5.806;2023-04-16T14:00:31;17.30;99.90
62573;DHT22;48626;51.678;5.806;2023-04-16T14:02:57;17.10;99.90
62573;DHT22;48626;51.678;5.806;2023-04-16T14:05:22;17.20;99.90
62573;DHT22;48626;51.678;5.806;2023-04-16T14:07:48;17.10;99.90
62573;DHT22;48626;51.678;5.806;2023-04-16T14:10:15;17.40;99.90
62573;DHT22;48626;51.678;5.806;2023-04-16T14:12:41;17.80;99.90
62573;DHT22;48626;51.678;5.806;2023-04-16T14:15:07;18.00;99.90
62573;DHT22;48626;51.678;5.806;2023-04-16T14:17:34;18.30;99.90
62573;DHT22;48626;51.678;5.806;2023-04-16T14:20:04;18.50;99.90
62573;DHT22;48626;51.678;5.806;2023-04-16T14:22:30;19.60;99.90
62573;DHT22;48626;51.678;5.806;2023-04-16T14:24:56;19.50;99.90
62573;DHT22;48626;51.678;5.806;2023-04-16T14:27:21;18.90;99.90
62573;DHT22;48626;51.678;5.806;2023-04-16T14:29:47;18.70;99.90
62573;DHT22;48626;51.678;5.806;2023-04-16T14:32:13;19.10;99.90
62573;DHT22;48626;51.678;5.806;2023-04-16T14:34:38;19.40;99.90
62573;DHT22;48626;51.678;5.806;2023-04-16T14:37:04;19.10;99.90
62573;DHT22;48626;51.678;5.806;2023-04-16T14:39:30;19.10;99.90
62573;DHT22;48626;51.678;5.806;2023-04-16T14:41:56;19.30;99.90
62573;DHT22;48626;51.678;5.806;2023-04-16T14:44:21;19.30;99.90
62573;DHT22;48626;51.678;5.806;2023-04-16T14:46:47;19.40;99.90
62573;DHT22;48626;51.678;5.806;2023-04-16T14:49:13;19.50;99.90
62573;DHT22;48626;51.678;5.806;2023-04-16T14:51:39;19.50;99.90
62573;DHT22;48626;51.678;5.806;2023-04-16T14:54:05;19.00;99.90
62573;DHT22;48626;51.678;5.806;2023-04-16T14:56:31;18.60;99.90
62573;DHT22;48626;51.678;5.806;2023-04-16T14:58:57;18.40;99.90
62573;DHT22;48626;51.678;5.806;2023-04-16T15:01:22;18.00;99.90
62573;DHT22;48626;51.678;5.806;2023-04-16T15:03:48;17.80;99.90
62573;DHT22;48626;51.678;5.806;2023-04-16T15:06:14;17.60;99.90
62573;DHT22;48626;51.678;5.806;2023-04-16T15:08:40;17.40;99.90
62573;DHT22;48626;51.678;5.806;2023-04-16T15:11:06;17.30;99.90
62573;DHT22;48626;51.678;5.806;2023-04-16T15:13:32;17.10;99.90
62573;DHT22;48626;51.678;5.806;2023-04-16T15:16:02;16.90;99.90
62573;DHT22;48626;51.678;5.806;2023-04-16T15:18:29;16.80;99.90
62573;DHT22;48626;51.678;5.806;2023-04-16T15:20:55;16.70;99.90
62573;DHT22;48626;51.678;5.806;2023-04-16T15:23:21;16.60;99.90
62573;DHT22;48626;51.678;5.806;2023-04-16T15:25:46;16.40;99.90
62573;DHT22;48626;51.678;5.806;2023-04-16T15:28:12;16.20;99.90
62573;DHT22;48626;51.678;5.806;2023-04-16T15:30:41;15.90;99.90
62573;DHT22;48626;51.678;5.806;2023-04-16T15:33:07;15.80;99.90
62573;DHT22;48626;51.678;5.806;2023-04-16T15:35:34;15.70;99.90
62573;DHT22;48626;51.678;5.806;2023-04-16T15:38:01;15.60;99.90
62573;DHT22;48626;51.678;5.806;2023-04-16T15:40:26;15.40;99.90